Weather at San German Airport

Public forecast

Using degrees Celsius for public forecast. Weather courtesy of forecast.io.

Closest aviation weather report (METAR) to San German Airport

Closest report is Frank Pais International Airport, 16.2 nm (30.1 km) NW. Retrieved 2021/10/19 14:50 UTC (55 minutes ago):

MUHG 191450Z 07010KT 030V120 9000 SCT024 30/21 Q1016

Closest aviation forecast (TAF) to San German Airport

Closest forecast is Frank Pais International Airport, 16.2 nm (30.1 km) NW. Retrieved 2021/10/19 12:03 UTC (4 hours ago):

TAF MUHG 191100Z 1912/2012 VRB03KT 9000 FEW025 BECMG 1915/1917 05012KT BECMG 2000/2002 VRB03KT